Time;durP1;ratioP1;P1;durP2;ratioP2;P2;SDS_P1;SDS_P2;PMS_P1;PMS_P2;Temp;Humidity;BMP_temperature;BMP_pressure;BME280_temperature;BME280_humidity;BME280_pressure;Samples;Min_cycle;Max_cycle;Signal;HPM_P1;HPM_P2
2021/07/09 00:01:27;;;;;;;4.25;3.95;;;17.30;99.90;;;;;;4960589;28;20505;-84
2021/07/09 00:03:55;;;;;;;4.28;3.97;;;17.40;99.90;;;;;;4964594;28;20061;-84
2021/07/09 00:06:23;;;;;;;6.13;3.75;;;17.40;99.90;;;;;;4966077;28;20047;-84
2021/07/09 00:08:50;;;;;;;4.10;3.53;;;17.30;99.90;;;;;;4965958;28;20054;-84
2021/07/09 00:11:18;;;;;;;4.65;4.13;;;17.30;99.90;;;;;;4965590;28;20054;-85
2021/07/09 00:13:46;;;;;;;5.55;3.50;;;17.40;99.90;;;;;;4964145;28;20047;-84
2021/07/09 00:16:17;;;;;;;4.30;4.00;;;17.40;99.90;;;;;;4963003;28;20042;-84
2021/07/09 00:18:45;;;;;;;3.55;3.25;;;17.40;99.90;;;;;;4966257;28;20106;-84
2021/07/09 00:21:13;;;;;;;3.95;3.55;;;17.40;99.90;;;;;;4964189;28;20058;-84
2021/07/09 00:23:41;;;;;;;4.22;3.92;;;17.40;99.90;;;;;;4973429;28;20493;-84
2021/07/09 00:26:08;;;;;;;5.57;5.03;;;17.40;99.90;;;;;;4962781;28;20268;-84
2021/07/09 00:28:36;;;;;;;4.78;4.28;;;17.40;99.90;;;;;;4982424;28;20054;-84
2021/07/09 00:31:03;;;;;;;4.20;3.80;;;17.40;99.90;;;;;;4965372;28;20047;-84
2021/07/09 00:33:30;;;;;;;5.25;3.85;;;17.40;99.90;;;;;;4973102;28;20654;-84
2021/07/09 00:35:57;;;;;;;4.40;4.00;;;17.40;99.90;;;;;;4962906;28;20046;-84
2021/07/09 00:38:24;;;;;;;4.70;4.20;;;17.40;99.90;;;;;;4966153;28;20054;-84
2021/07/09 00:40:51;;;;;;;4.20;3.80;;;17.30;99.90;;;;;;4983758;28;20117;-85
2021/07/09 00:43:19;;;;;;;7.68;5.18;;;17.30;99.90;;;;;;4965186;28;20477;-84
2021/07/09 00:45:46;;;;;;;3.92;3.65;;;17.30;99.90;;;;;;4981842;28;20062;-84
2021/07/09 00:48:13;;;;;;;4.65;3.75;;;17.30;99.90;;;;;;4963070;28;20039;-84
2021/07/09 00:50:40;;;;;;;4.22;3.65;;;17.30;99.90;;;;;;4981711;28;20492;-84
2021/07/09 00:53:08;;;;;;;4.20;3.60;;;17.30;99.90;;;;;;4965609;28;20078;-85
2021/07/09 00:55:35;;;;;;;5.03;3.67;;;17.30;99.90;;;;;;4964368;28;20066;-84
2021/07/09 00:58:03;;;;;;;4.70;3.65;;;17.30;99.90;;;;;;4963650;28;20482;-84
2021/07/09 01:00:32;;;;;;;6.57;4.75;;;17.30;99.90;;;;;;4948300;28;20047;-85
2021/07/09 01:02:59;;;;;;;7.97;5.00;;;17.30;99.90;;;;;;4964689;28;20097;-84
2021/07/09 01:05:26;;;;;;;8.02;4.35;;;17.30;99.90;;;;;;4980261;28;20053;-85
2021/07/09 01:07:53;;;;;;;4.72;3.65;;;17.30;99.90;;;;;;4944586;28;20054;-85
2021/07/09 01:10:20;;;;;;;4.05;3.65;;;17.30;99.90;;;;;;4980065;28;20063;-85
2021/07/09 01:12:48;;;;;;;3.38;3.15;;;17.40;99.90;;;;;;4982749;28;20047;-84
2021/07/09 01:15:18;;;;;;;3.67;3.33;;;17.40;99.90;;;;;;4965549;28;20117;-84
2021/07/09 01:17:46;;;;;;;4.40;4.00;;;17.40;99.90;;;;;;4981125;28;20101;-84
2021/07/09 01:20:16;;;;;;;2.72;2.63;;;17.40;99.90;;;;;;4946162;28;20051;-84
2021/07/09 01:22:45;;;;;;;5.07;4.43;;;17.40;99.90;;;;;;4952969;28;20046;-84
2021/07/09 01:25:18;;;;;;;6.43;3.25;;;17.40;99.90;;;;;;4966261;28;20074;-84
2021/07/09 01:27:48;;;;;;;4.80;3.08;;;17.40;99.90;;;;;;4966375;28;20052;-85
2021/07/09 01:30:21;;;;;;;3.72;2.55;;;17.40;99.90;;;;;;4978819;28;20572;-85
2021/07/09 01:32:52;;;;;;;5.05;3.20;;;17.40;99.90;;;;;;4966226;28;20042;-84
2021/07/09 01:35:21;;;;;;;7.28;3.58;;;17.40;99.90;;;;;;4947258;28;20058;-84
2021/07/09 01:37:58;;;;;;;5.25;3.50;;;17.40;99.90;;;;;;4945763;28;20137;-84
2021/07/09 01:40:27;;;;;;;3.42;3.22;;;17.40;99.90;;;;;;4981460;28;20051;-85
2021/07/09 01:42:55;;;;;;;5.82;2.90;;;17.40;99.90;;;;;;4965781;28;20051;-84
2021/07/09 01:45:23;;;;;;;3.22;2.92;;;17.40;99.90;;;;;;4965441;28;20516;-84
2021/07/09 01:47:51;;;;;;;3.65;3.33;;;17.40;99.90;;;;;;4947789;28;20504;-84
2021/07/09 01:50:19;;;;;;;5.55;2.67;;;17.40;99.90;;;;;;4964884;28;20439;-84
2021/07/09 01:52:47;;;;;;;4.40;3.47;;;17.50;99.90;;;;;;4978555;28;20419;-84
2021/07/09 01:55:15;;;;;;;4.57;3.60;;;17.40;99.90;;;;;;4966209;28;20117;-84
2021/07/09 01:57:43;;;;;;;3.30;2.95;;;17.40;99.90;;;;;;4946260;28;20043;-84
2021/07/09 02:00:17;;;;;;;3.45;2.90;;;17.50;99.90;;;;;;4947163;28;20123;-84
2021/07/09 02:02:44;;;;;;;3.40;3.05;;;17.50;99.90;;;;;;4965723;28;20051;-85
2021/07/09 02:05:14;;;;;;;3.53;3.25;;;17.50;99.90;;;;;;4963180;28;20055;-84
2021/07/09 02:07:43;;;;;;;3.53;2.83;;;17.50;99.90;;;;;;4946579;28;20137;-84
2021/07/09 02:10:13;;;;;;;3.27;2.93;;;17.50;99.90;;;;;;4958172;28;20050;-84
2021/07/09 02:12:41;;;;;;;3.80;2.85;;;17.50;99.90;;;;;;4947057;28;20194;-84
2021/07/09 02:15:14;;;;;;;3.28;3.00;;;17.50;99.90;;;;;;4947529;28;20078;-84
2021/07/09 02:17:42;;;;;;;3.40;2.95;;;17.50;99.90;;;;;;4963019;28;20700;-84
2021/07/09 02:20:14;;;;;;;4.60;3.40;;;17.50;99.90;;;;;;4963898;28;20046;-84
2021/07/09 02:22:42;;;;;;;4.63;2.95;;;17.60;99.90;;;;;;4966584;28;20502;-84
2021/07/09 02:25:09;;;;;;;3.58;3.28;;;17.60;99.90;;;;;;4975994;28;20082;-84
2021/07/09 02:27:38;;;;;;;3.78;3.33;;;17.60;99.90;;;;;;4968268;28;20047;-85
2021/07/09 02:30:07;;;;;;;3.72;3.42;;;17.60;99.90;;;;;;4983415;28;20477;-84
2021/07/09 02:32:34;;;;;;;4.03;2.63;;;17.60;99.90;;;;;;4967649;28;20097;-84
2021/07/09 02:35:04;;;;;;;4.13;3.72;;;17.60;99.90;;;;;;4983709;28;20035;-83
2021/07/09 02:37:31;;;;;;;2.93;2.67;;;17.60;99.90;;;;;;4982513;28;20051;-83
2021/07/09 02:39:58;;;;;;;3.30;3.00;;;17.60;99.90;;;;;;4966579;28;20109;-84
2021/07/09 02:42:26;;;;;;;2.90;2.55;;;17.70;99.90;;;;;;4969413;28;20051;-84
2021/07/09 02:44:53;;;;;;;3.17;2.95;;;17.70;99.90;;;;;;4984552;28;20054;-84
2021/07/09 02:47:19;;;;;;;4.63;3.35;;;17.70;99.90;;;;;;4951679;28;20476;-84
2021/07/09 02:49:46;;;;;;;3.95;3.28;;;17.70;99.90;;;;;;4964763;28;20058;-84
2021/07/09 02:52:13;;;;;;;7.45;3.13;;;17.70;99.90;;;;;;4980522;28;20105;-84
2021/07/09 02:54:40;;;;;;;3.38;3.08;;;17.70;99.90;;;;;;4966812;28;20584;-84
2021/07/09 02:57:08;;;;;;;4.43;3.42;;;17.70;99.90;;;;;;4969437;28;20058;-84
2021/07/09 02:59:35;;;;;;;4.85;3.03;;;17.70;99.90;;;;;;4981864;28;20066;-83
2021/07/09 03:02:02;;;;;;;3.60;3.10;;;17.80;99.90;;;;;;4985468;28;20055;-84
2021/07/09 03:04:30;;;;;;;2.90;2.70;;;17.80;99.90;;;;;;4981782;28;20119;-84
2021/07/09 03:06:57;;;;;;;4.95;3.15;;;17.80;99.90;;;;;;4969332;28;20078;-84
2021/07/09 03:09:24;;;;;;;4.82;3.03;;;17.80;99.90;;;;;;4967892;28;20073;-84
2021/07/09 03:11:51;;;;;;;10.25;4.32;;;17.90;99.90;;;;;;4966862;28;20043;-84
2021/07/09 03:14:18;;;;;;;4.30;3.28;;;17.90;99.90;;;;;;4966323;28;20043;-84
2021/07/09 03:16:45;;;;;;;3.35;2.92;;;17.90;99.90;;;;;;4967950;28;20046;-85
2021/07/09 03:19:12;;;;;;;3.55;2.65;;;18.00;99.90;;;;;;4968318;28;20520;-85
2021/07/09 03:21:39;;;;;;;4.15;3.70;;;18.00;99.90;;;;;;4967049;28;20113;-84
2021/07/09 03:24:06;;;;;;;4.65;2.78;;;18.00;99.90;;;;;;4966451;28;20051;-84
2021/07/09 03:26:34;;;;;;;3.15;2.95;;;18.00;99.90;;;;;;4948058;28;20097;-84
2021/07/09 03:29:02;;;;;;;3.00;2.80;;;18.00;99.90;;;;;;4967316;28;20057;-84
2021/07/09 03:31:31;;;;;;;3.85;3.25;;;18.00;99.90;;;;;;4949062;28;20058;-84
2021/07/09 03:33:59;;;;;;;5.40;3.50;;;18.00;99.90;;;;;;4964541;28;20066;-84
2021/07/09 03:36:27;;;;;;;5.45;3.35;;;18.10;99.90;;;;;;4966104;28;20058;-84
2021/07/09 03:38:56;;;;;;;5.10;3.15;;;18.10;99.90;;;;;;4968677;28;20046;-84
2021/07/09 03:41:24;;;;;;;4.72;2.63;;;18.10;99.90;;;;;;4967516;28;20105;-84
2021/07/09 03:43:52;;;;;;;4.55;2.78;;;18.10;99.90;;;;;;4948638;28;20050;-84
2021/07/09 03:46:20;;;;;;;5.47;2.88;;;18.10;99.90;;;;;;4965871;28;20099;-84
2021/07/09 03:48:47;;;;;;;3.88;3.03;;;18.20;99.90;;;;;;4950352;28;20049;-84
2021/07/09 03:51:14;;;;;;;5.50;3.15;;;18.10;99.90;;;;;;4966073;28;20052;-84
2021/07/09 03:53:41;;;;;;;3.72;2.42;;;18.20;99.90;;;;;;4968597;28;20051;-84
2021/07/09 03:56:08;;;;;;;2.80;2.60;;;18.20;99.90;;;;;;4960013;28;20059;-84
2021/07/09 03:58:36;;;;;;;3.95;2.92;;;18.20;99.90;;;;;;4967133;28;20050;-84
2021/07/09 04:01:04;;;;;;;8.18;3.55;;;18.30;99.90;;;;;;4964864;28;20058;-84
2021/07/09 04:03:31;;;;;;;2.92;2.72;;;18.30;99.90;;;;;;4970945;28;20378;-84
2021/07/09 04:05:58;;;;;;;6.57;2.85;;;18.30;99.90;;;;;;4966179;28;20121;-84
2021/07/09 04:08:25;;;;;;;6.38;2.92;;;18.40;99.90;;;;;;4966554;28;20062;-84
2021/07/09 04:10:52;;;;;;;3.42;3.13;;;18.40;99.90;;;;;;4964990;28;20054;-84
2021/07/09 04:13:19;;;;;;;5.53;3.38;;;18.50;99.90;;;;;;4979948;28;20045;-84
2021/07/09 04:15:46;;;;;;;3.70;3.28;;;18.50;99.90;;;;;;4963331;28;20109;-83
2021/07/09 04:18:13;;;;;;;5.90;3.63;;;18.60;99.90;;;;;;4976415;28;20552;-84
2021/07/09 04:20:40;;;;;;;3.35;3.15;;;18.60;99.90;;;;;;4966654;28;20039;-84
2021/07/09 04:23:07;;;;;;;4.40;3.40;;;18.60;99.90;;;;;;4966392;28;20055;-84
2021/07/09 04:25:34;;;;;;;6.40;3.70;;;18.70;99.90;;;;;;4964798;28;20116;-84
2021/07/09 04:28:02;;;;;;;4.90;3.20;;;18.70;99.90;;;;;;4965048;28;20058;-84
2021/07/09 04:30:29;;;;;;;3.35;2.90;;;18.70;99.90;;;;;;4965195;28;20038;-84
2021/07/09 04:32:56;;;;;;;6.80;3.55;;;18.80;99.90;;;;;;4982791;28;20098;-85
2021/07/09 04:35:23;;;;;;;4.53;3.13;;;18.90;99.90;;;;;;4965998;28;20101;-84
2021/07/09 04:37:50;;;;;;;4.05;3.53;;;18.90;99.90;;;;;;4963699;28;20062;-84
2021/07/09 04:40:17;;;;;;;2.72;2.53;;;19.00;99.90;;;;;;4963759;28;20049;-85
2021/07/09 04:42:45;;;;;;;2.72;2.53;;;19.00;99.90;;;;;;4966388;28;20534;-85
2021/07/09 04:45:13;;;;;;;4.15;3.25;;;19.00;99.90;;;;;;4981052;28;20078;-85
2021/07/09 04:47:41;;;;;;;3.90;2.78;;;19.10;99.90;;;;;;4966098;28;20043;-84
2021/07/09 04:50:09;;;;;;;4.65;3.08;;;19.00;99.90;;;;;;4963196;28;20057;-85
2021/07/09 04:52:43;;;;;;;6.57;3.25;;;19.10;99.90;;;;;;4962145;28;20047;-84
2021/07/09 04:55:12;;;;;;;4.13;2.75;;;19.10;99.90;;;;;;4961346;28;20046;-85
2021/07/09 04:57:40;;;;;;;3.67;2.75;;;19.20;99.90;;;;;;4966521;28;20047;-85
2021/07/09 05:00:08;;;;;;;3.33;2.40;;;19.20;99.90;;;;;;4963057;28;20054;-85
2021/07/09 05:02:38;;;;;;;6.43;2.65;;;19.30;99.90;;;;;;4984349;28;20436;-85
2021/07/09 05:05:15;;;;;;;4.13;2.63;;;19.30;99.90;;;;;;4980945;28;20039;-84
2021/07/09 05:07:45;;;;;;;2.90;2.33;;;19.30;99.90;;;;;;4974985;28;20061;-85
2021/07/09 05:10:12;;;;;;;7.15;2.83;;;19.40;99.90;;;;;;4964065;28;20557;-85
2021/07/09 05:12:40;;;;;;;4.07;2.72;;;19.50;99.90;;;;;;4983806;28;20057;-83
2021/07/09 05:15:08;;;;;;;4.10;2.65;;;19.50;99.90;;;;;;4966362;28;20046;-85
2021/07/09 05:17:35;;;;;;;2.22;2.03;;;19.60;99.90;;;;;;4980509;28;20078;-85
2021/07/09 05:20:03;;;;;;;2.42;2.22;;;19.70;99.90;;;;;;4963765;28;20050;-85
2021/07/09 05:22:30;;;;;;;4.00;2.00;;;19.70;99.90;;;;;;4964128;28;20076;-84
2021/07/09 05:24:57;;;;;;;3.42;2.22;;;19.80;99.90;;;;;;4948797;28;20124;-85
2021/07/09 05:27:29;;;;;;;3.72;2.30;;;19.80;99.90;;;;;;4963477;28;20043;-85
2021/07/09 05:29:57;;;;;;;3.63;2.05;;;19.90;99.90;;;;;;4965864;28;20049;-85
2021/07/09 05:32:25;;;;;;;3.20;2.58;;;19.90;99.90;;;;;;4964572;28;20042;-85
2021/07/09 05:34:55;;;;;;;4.28;2.20;;;20.00;99.90;;;;;;4966023;28;20074;-84
2021/07/09 05:37:23;;;;;;;2.65;1.77;;;20.00;99.90;;;;;;4965273;28;20112;-85
2021/07/09 05:39:50;;;;;;;3.85;2.35;;;20.10;99.90;;;;;;4964917;28;20508;-84
2021/07/09 05:42:17;;;;;;;5.65;2.92;;;20.10;99.90;;;;;;4963074;28;20058;-84
2021/07/09 05:44:44;;;;;;;2.60;2.40;;;20.10;99.90;;;;;;4968388;28;20461;-86
2021/07/09 05:47:12;;;;;;;3.30;1.92;;;20.10;99.90;;;;;;4980182;28;20101;-85
2021/07/09 05:49:39;;;;;;;3.47;1.77;;;20.20;99.90;;;;;;4959490;28;20054;-85
2021/07/09 05:52:08;;;;;;;3.65;3.05;;;20.10;99.90;;;;;;4920718;28;20040;-85
2021/07/09 05:54:36;;;;;;;2.10;1.60;;;20.20;99.90;;;;;;4926430;28;20552;-85
2021/07/09 05:57:03;;;;;;;3.90;2.00;;;20.20;99.90;;;;;;4944119;28;20110;-83
2021/07/09 05:59:30;;;;;;;2.88;2.20;;;20.20;99.90;;;;;;4941189;28;20371;-85
2021/07/09 06:01:57;;;;;;;2.00;1.80;;;20.30;99.90;;;;;;4930354;28;20386;-85
2021/07/09 06:04:25;;;;;;;6.45;2.42;;;20.30;99.90;;;;;;4944579;28;20150;-85
2021/07/09 06:06:52;;;;;;;2.40;1.85;;;20.40;99.90;;;;;;4930297;28;20062;-85
2021/07/09 06:09:19;;;;;;;8.65;2.85;;;20.40;99.90;;;;;;4930555;28;20043;-85
2021/07/09 06:11:47;;;;;;;4.20;2.60;;;20.40;99.90;;;;;;4958220;28;20150;-85
2021/07/09 06:14:14;;;;;;;3.55;2.13;;;20.50;99.90;;;;;;4942380;28;20047;-85
2021/07/09 06:16:41;;;;;;;4.25;2.40;;;20.50;99.90;;;;;;4945536;28;20071;-85
2021/07/09 06:19:08;;;;;;;3.70;1.95;;;20.60;99.90;;;;;;4942758;28;20111;-85
2021/07/09 06:21:35;;;;;;;4.20;1.90;;;20.60;99.90;;;;;;4930086;28;20937;-85
2021/07/09 06:24:02;;;;;;;3.72;1.67;;;20.70;99.90;;;;;;4928628;28;20055;-85
2021/07/09 06:26:29;;;;;;;2.47;2.15;;;20.70;99.90;;;;;;4954100;28;20055;-85
2021/07/09 06:28:56;;;;;;;1.92;1.75;;;20.80;99.90;;;;;;4929868;28;20047;-85
2021/07/09 06:31:23;;;;;;;4.57;1.92;;;20.80;99.90;;;;;;4945084;28;20405;-85
2021/07/09 06:33:50;;;;;;;2.13;1.48;;;20.90;99.90;;;;;;4942072;28;20078;-85
2021/07/09 06:36:18;;;;;;;2.33;1.55;;;21.00;99.90;;;;;;4941825;28;20224;-85
2021/07/09 06:38:46;;;;;;;1.42;1.30;;;21.10;99.90;;;;;;4943456;28;20039;-85
2021/07/09 06:41:13;;;;;;;1.38;1.23;;;21.20;99.90;;;;;;4930534;28;20052;-85
2021/07/09 06:43:40;;;;;;;5.18;1.90;;;21.30;99.90;;;;;;4930138;28;20048;-85
2021/07/09 06:46:07;;;;;;;3.53;2.28;;;21.40;99.90;;;;;;4958793;28;20153;-85
2021/07/09 06:48:34;;;;;;;5.07;1.60;;;21.50;99.90;;;;;;4928729;28;20082;-85
2021/07/09 06:51:01;;;;;;;2.80;1.80;;;21.60;99.90;;;;;;4959720;28;20085;-85
2021/07/09 06:53:28;;;;;;;2.25;1.30;;;21.60;99.90;;;;;;4967352;28;20055;-85
2021/07/09 06:55:55;;;;;;;3.72;2.33;;;21.70;99.90;;;;;;4966979;28;20568;-85
2021/07/09 06:58:22;;;;;;;7.30;1.73;;;21.70;99.90;;;;;;4981406;28;20050;-85
2021/07/09 07:00:49;;;;;;;4.03;2.00;;;21.60;99.90;;;;;;4970881;28;20047;-86
2021/07/09 07:03:17;;;;;;;4.63;1.67;;;21.60;99.90;;;;;;4966313;28;20065;-85
2021/07/09 07:05:44;;;;;;;3.95;1.42;;;21.60;99.90;;;;;;4984547;28;20829;-84
2021/07/09 07:08:23;;;;;;;3.42;2.25;;;21.60;99.90;;;;;;4962323;28;20145;-85
2021/07/09 07:10:51;;;;;;;2.45;1.77;;;21.60;99.90;;;;;;4960337;28;20053;-85
2021/07/09 07:13:20;;;;;;;3.53;1.52;;;21.60;99.90;;;;;;4967159;28;20047;-86
2021/07/09 07:15:47;;;;;;;2.53;1.52;;;21.70;99.90;;;;;;4984770;28;20501;-85
2021/07/09 07:18:15;;;;;;;3.45;1.58;;;21.70;99.90;;;;;;4964716;28;20051;-85
2021/07/09 07:20:44;;;;;;;7.30;2.22;;;21.80;99.90;;;;;;4983031;28;20055;-85
2021/07/09 07:23:15;;;;;;;4.30;2.17;;;21.80;99.90;;;;;;4967345;28;20481;-85
2021/07/09 07:25:42;;;;;;;3.33;2.05;;;21.90;99.90;;;;;;4966534;28;20496;-85
2021/07/09 07:28:10;;;;;;;1.85;1.42;;;21.90;99.90;;;;;;4964036;28;20505;-86
2021/07/09 07:30:37;;;;;;;1.88;1.40;;;22.00;99.90;;;;;;4965925;28;20465;-85
2021/07/09 07:33:04;;;;;;;3.90;1.35;;;22.00;99.90;;;;;;4983029;28;20042;-85
2021/07/09 07:35:32;;;;;;;2.38;1.52;;;22.00;99.90;;;;;;4965797;28;20049;-84
2021/07/09 07:37:59;;;;;;;2.72;2.15;;;22.00;99.90;;;;;;4964540;28;20050;-85
2021/07/09 07:40:26;;;;;;;5.38;2.35;;;22.00;99.90;;;;;;4967224;28;20093;-85
2021/07/09 07:42:53;;;;;;;2.72;1.58;;;22.00;99.90;;;;;;4967735;28;20382;-84
2021/07/09 07:45:20;;;;;;;2.10;1.75;;;22.00;99.90;;;;;;4979361;28;20046;-85
2021/07/09 07:47:47;;;;;;;2.80;1.60;;;22.00;99.90;;;;;;4966336;28;20085;-84
2021/07/09 07:50:17;;;;;;;3.15;1.58;;;22.10;99.90;;;;;;4965941;28;20051;-84
2021/07/09 07:52:44;;;;;;;1.58;1.45;;;22.00;99.90;;;;;;4966212;28;20057;-85
2021/07/09 07:55:11;;;;;;;3.70;2.53;;;22.00;99.90;;;;;;4967818;28;20054;-85
2021/07/09 07:57:38;;;;;;;3.25;2.08;;;22.00;99.90;;;;;;4964913;28;20063;-85
2021/07/09 08:00:06;;;;;;;3.67;1.88;;;22.00;99.90;;;;;;4981085;28;20093;-85
2021/07/09 08:02:38;;;;;;;4.15;2.00;;;22.00;99.90;;;;;;4949395;28;20407;-84
2021/07/09 08:05:07;;;;;;;1.48;1.38;;;22.00;99.90;;;;;;4966843;28;20064;-85
2021/07/09 08:07:34;;;;;;;8.02;2.35;;;22.10;99.90;;;;;;4948668;28;20067;-84
2021/07/09 08:10:02;;;;;;;5.35;1.98;;;22.20;99.90;;;;;;4966382;28;20821;-85
2021/07/09 08:12:29;;;;;;;1.67;1.17;;;22.20;99.90;;;;;;4966486;28;20063;-84
2021/07/09 08:14:56;;;;;;;2.20;1.88;;;22.20;99.90;;;;;;4967392;28;20049;-85
2021/07/09 08:17:23;;;;;;;2.42;1.83;;;22.20;99.90;;;;;;4981639;28;20047;-85
2021/07/09 08:19:50;;;;;;;3.15;2.10;;;22.20;99.90;;;;;;4945341;28;20054;-86
2021/07/09 08:22:17;;;;;;;9.55;2.85;;;22.20;99.90;;;;;;4964080;28;20765;-85
2021/07/09 08:24:44;;;;;;;2.75;1.80;;;22.30;99.90;;;;;;4967382;28;20042;-85
2021/07/09 08:27:11;;;;;;;3.65;2.20;;;22.40;99.90;;;;;;4965499;28;20454;-85
2021/07/09 08:29:38;;;;;;;2.30;1.70;;;22.40;99.90;;;;;;4965213;28;20082;-84
2021/07/09 08:32:05;;;;;;;2.58;2.10;;;22.50;99.90;;;;;;4965154;28;20046;-85
2021/07/09 08:34:33;;;;;;;3.38;1.98;;;22.50;99.90;;;;;;4965701;28;20046;-85
2021/07/09 08:37:00;;;;;;;3.33;2.17;;;22.50;99.90;;;;;;4964328;28;20066;-85
2021/07/09 08:39:27;;;;;;;5.07;2.55;;;22.50;99.90;;;;;;4963282;28;20121;-85
2021/07/09 08:41:56;;;;;;;8.82;2.50;;;22.50;99.90;;;;;;4963271;28;20459;-85
2021/07/09 08:44:23;;;;;;;3.08;2.33;;;22.50;99.90;;;;;;4965269;28;20055;-85
2021/07/09 08:46:54;;;;;;;8.90;2.45;;;22.40;99.90;;;;;;4965950;28;20050;-85
2021/07/09 08:49:22;;;;;;;1.70;1.60;;;22.40;99.90;;;;;;4979171;28;20051;-85
2021/07/09 08:51:50;;;;;;;3.38;1.80;;;22.40;99.90;;;;;;4947905;28;20078;-85
2021/07/09 08:54:18;;;;;;;3.83;2.47;;;22.30;99.90;;;;;;4966260;28;20105;-85
2021/07/09 08:56:47;;;;;;;3.45;2.63;;;22.30;99.90;;;;;;4967254;28;20330;-85
2021/07/09 08:59:14;;;;;;;2.42;2.05;;;22.30;99.90;;;;;;4966975;28;20456;-85
2021/07/09 09:01:51;;;;;;;3.50;1.92;;;22.40;99.90;;;;;;4967264;28;20063;-85
2021/07/09 09:04:32;;;;;;;2.22;1.90;;;22.40;99.90;;;;;;4964278;28;20074;-85
2021/07/09 09:07:04;;;;;;;3.35;2.33;;;22.40;99.90;;;;;;4947052;28;20133;-85
2021/07/09 09:09:36;;;;;;;4.10;2.22;;;22.40;99.90;;;;;;4980155;28;20064;-85
2021/07/09 09:12:07;;;;;;;1.83;1.48;;;22.40;99.90;;;;;;4963490;28;20039;-85
2021/07/09 09:14:39;;;;;;;3.42;1.50;;;22.40;99.90;;;;;;4965917;28;20035;-85
2021/07/09 09:17:33;;;;;;;3.60;1.98;;;22.40;99.90;;;;;;4980477;28;20038;-85
2021/07/09 09:20:11;;;;;;;1.58;1.48;;;22.40;99.90;;;;;;4946029;28;20048;-85
2021/07/09 09:22:55;;;;;;;2.40;2.20;;;22.30;99.90;;;;;;4964295;28;20066;-85
2021/07/09 09:25:28;;;;;;;2.65;1.77;;;22.10;99.90;;;;;;4949942;28;20050;-85
2021/07/09 09:28:11;;;;;;;4.10;1.75;;;22.00;99.90;;;;;;4963905;28;20107;-85
2021/07/09 09:30:40;;;;;;;4.18;2.15;;;22.00;99.90;;;;;;4962815;28;20127;-84
2021/07/09 09:33:10;;;;;;;2.20;1.98;;;21.90;99.90;;;;;;4969767;28;20338;-84
2021/07/09 09:35:42;;;;;;;6.32;2.38;;;21.80;99.90;;;;;;4968356;28;20113;-85
2021/07/09 09:38:14;;;;;;;3.10;2.42;;;21.80;99.90;;;;;;4950866;28;20069;-85
2021/07/09 09:40:43;;;;;;;6.45;1.70;;;21.70;99.90;;;;;;4964677;28;20050;-85
2021/07/09 09:43:13;;;;;;;3.13;2.10;;;21.70;99.90;;;;;;4968632;28;20069;-85
2021/07/09 09:45:42;;;;;;;4.05;2.47;;;21.60;99.90;;;;;;4966710;28;20681;-85
2021/07/09 09:48:15;;;;;;;5.20;2.30;;;21.70;99.90;;;;;;4968585;28;20497;-85
2021/07/09 09:50:42;;;;;;;5.72;2.35;;;21.80;99.90;;;;;;4949686;28;20054;-85
2021/07/09 09:53:09;;;;;;;2.63;1.95;;;21.70;99.90;;;;;;4983308;28;20055;-84
2021/07/09 09:55:36;;;;;;;2.88;2.53;;;21.70;99.90;;;;;;4967777;28;20050;-85
2021/07/09 09:58:16;;;;;;;3.92;1.95;;;21.70;99.90;;;;;;4964305;28;20154;-85
2021/07/09 10:00:45;;;;;;;3.50;3.20;;;21.70;99.90;;;;;;4966943;28;20054;-85
2021/07/09 10:03:18;;;;;;;2.50;2.03;;;21.70;99.90;;;;;;4965744;28;20055;-86
2021/07/09 10:05:47;;;;;;;3.33;2.15;;;21.70;99.90;;;;;;4983978;28;20410;-85
2021/07/09 10:08:15;;;;;;;3.55;1.88;;;21.70;99.90;;;;;;4979843;28;20451;-86
2021/07/09 10:10:44;;;;;;;2.50;2.03;;;21.70;99.90;;;;;;4967501;28;20062;-85
2021/07/09 10:13:16;;;;;;;2.90;2.33;;;21.70;99.90;;;;;;4965665;28;20055;-85
2021/07/09 10:15:47;;;;;;;2.70;2.50;;;21.60;99.90;;;;;;4987664;28;20081;-85
2021/07/09 10:18:15;;;;;;;2.63;2.05;;;21.60;99.90;;;;;;4963442;28;20053;-85
2021/07/09 10:20:45;;;;;;;3.05;2.45;;;21.50;99.90;;;;;;4971827;28;20374;-85
2021/07/09 10:23:17;;;;;;;2.47;2.30;;;21.60;99.90;;;;;;4966263;28;20053;-85
2021/07/09 10:25:47;;;;;;;3.50;2.83;;;21.60;99.90;;;;;;4966490;28;20273;-84
2021/07/09 10:28:19;;;;;;;3.70;2.30;;;21.60;99.90;;;;;;4964955;28;20051;-84
2021/07/09 10:30:46;;;;;;;2.75;2.55;;;21.50;99.90;;;;;;4966249;28;20058;-84
2021/07/09 10:33:28;;;;;;;2.63;2.38;;;21.50;99.90;;;;;;4950367;28;20141;-85
2021/07/09 10:35:56;;;;;;;2.92;2.67;;;21.40;99.90;;;;;;4982841;28;20915;-84
2021/07/09 10:38:24;;;;;;;2.60;2.03;;;21.30;99.90;;;;;;4984454;28;20046;-85
2021/07/09 10:40:51;;;;;;;2.20;1.98;;;21.20;99.90;;;;;;4982248;28;20500;-84
2021/07/09 10:43:19;;;;;;;3.90;2.90;;;21.20;99.90;;;;;;4983568;28;20051;-85
2021/07/09 10:45:47;;;;;;;21.48;4.85;;;21.20;99.90;;;;;;4966573;28;20059;-84
2021/07/09 10:48:18;;;;;;;3.83;3.33;;;21.20;99.90;;;;;;4981488;28;20043;-84
2021/07/09 10:50:49;;;;;;;2.80;2.28;;;21.10;99.90;;;;;;4926997;28;1110218;-84
2021/07/09 10:53:18;;;;;;;3.97;2.22;;;21.00;99.90;;;;;;4990163;28;20047;-85
2021/07/09 10:55:50;;;;;;;3.30;2.40;;;21.00;99.90;;;;;;4984153;28;20091;-84
2021/07/09 10:58:30;;;;;;;7.43;3.67;;;21.00;99.90;;;;;;4966675;28;20724;-85
2021/07/09 11:01:09;;;;;;;3.40;2.28;;;21.00;99.90;;;;;;4966113;28;20069;-84
2021/07/09 11:03:44;;;;;;;3.95;2.22;;;20.90;99.90;;;;;;4968506;28;20505;-84
2021/07/09 11:06:32;;;;;;;9.60;2.75;;;20.80;99.90;;;;;;4963686;28;20050;-84
2021/07/09 11:09:13;;;;;;;2.75;2.00;;;20.80;99.90;;;;;;4968270;28;20035;-85
2021/07/09 11:11:44;;;;;;;3.20;2.20;;;20.80;99.90;;;;;;4966817;28;20038;-85
2021/07/09 11:14:30;;;;;;;2.00;1.90;;;20.80;99.90;;;;;;4962499;28;20125;-84
2021/07/09 11:17:22;;;;;;;3.90;2.38;;;20.80;99.90;;;;;;4967539;28;20127;-85
2021/07/09 11:19:50;;;;;;;5.95;2.88;;;20.70;99.90;;;;;;4948494;28;21551;-85
2021/07/09 11:22:22;;;;;;;3.22;2.53;;;20.70;99.90;;;;;;4981532;28;20043;-85
2021/07/09 11:24:53;;;;;;;5.07;3.15;;;20.70;99.90;;;;;;4983341;28;20042;-85
2021/07/09 11:27:25;;;;;;;4.25;3.20;;;20.70;99.90;;;;;;4967586;28;20039;-85
2021/07/09 11:29:59;;;;;;;3.90;3.55;;;20.70;99.90;;;;;;4963656;28;20039;-84
2021/07/09 11:32:32;;;;;;;4.55;3.53;;;20.70;99.90;;;;;;4966467;28;20057;-84
2021/07/09 11:34:59;;;;;;;3.35;3.05;;;20.70;99.90;;;;;;4967311;28;20170;-84
2021/07/09 11:37:32;;;;;;;2.83;2.30;;;20.70;99.90;;;;;;4950866;28;20074;-84
2021/07/09 11:40:07;;;;;;;6.22;3.45;;;20.60;99.90;;;;;;4964909;28;20654;-85
2021/07/09 11:42:37;;;;;;;2.92;2.72;;;20.60;99.90;;;;;;4990084;28;20050;-84
2021/07/09 11:45:10;;;;;;;3.88;2.88;;;20.50;99.90;;;;;;4950600;28;20190;-85
2021/07/09 11:47:42;;;;;;;5.30;3.30;;;20.50;99.90;;;;;;4950462;28;20043;-84
2021/07/09 11:50:20;;;;;;;9.63;4.00;;;20.60;99.90;;;;;;4960237;28;20491;-84
2021/07/09 11:52:53;;;;;;;5.10;3.67;;;20.60;99.90;;;;;;4962657;28;20146;-84
2021/07/09 11:55:28;;;;;;;7.65;3.55;;;20.60;99.90;;;;;;4948233;28;20438;-84
2021/07/09 11:57:56;;;;;;;3.10;2.78;;;20.70;99.90;;;;;;4981958;28;20050;-84
2021/07/09 12:00:23;;;;;;;7.53;3.58;;;20.70;99.90;;;;;;4966065;28;20101;-84
2021/07/09 12:02:51;;;;;;;3.30;3.08;;;20.70;99.90;;;;;;4966038;28;20066;-84
2021/07/09 12:05:20;;;;;;;5.22;4.60;;;20.80;99.90;;;;;;4950629;28;20058;-84
2021/07/09 12:07:55;;;;;;;5.32;4.82;;;20.90;99.90;;;;;;4948773;28;20039;-84
2021/07/09 12:10:28;;;;;;;6.55;4.85;;;20.90;99.90;;;;;;4964868;28;20078;-84
2021/07/09 12:13:04;;;;;;;5.05;3.92;;;20.90;99.90;;;;;;4963674;28;20043;-84
2021/07/09 12:15:32;;;;;;;3.80;3.30;;;20.90;99.90;;;;;;4953413;28;20050;-84
2021/07/09 12:18:06;;;;;;;4.43;2.90;;;20.90;99.90;;;;;;4932377;28;20047;-85
2021/07/09 12:20:48;;;;;;;4.10;3.10;;;20.80;99.90;;;;;;4967472;28;20061;-85
2021/07/09 12:23:20;;;;;;;5.30;3.15;;;20.70;99.90;;;;;;4961707;28;20058;-84
2021/07/09 12:25:55;;;;;;;3.75;3.40;;;20.60;99.90;;;;;;4949567;28;20057;-84
2021/07/09 12:28:24;;;;;;;7.63;3.20;;;20.50;99.90;;;;;;4978552;28;20045;-84
2021/07/09 12:30:54;;;;;;;4.10;3.05;;;20.40;99.90;;;;;;4965923;28;20485;-85
2021/07/09 12:33:26;;;;;;;8.30;3.40;;;20.30;99.90;;;;;;4965564;28;20051;-85
2021/07/09 12:36:02;;;;;;;10.02;4.63;;;20.30;99.90;;;;;;4981520;28;20078;-85
2021/07/09 12:38:37;;;;;;;5.18;3.15;;;20.20;99.90;;;;;;4964139;28;20081;-83
2021/07/09 12:41:09;;;;;;;5.65;4.20;;;20.20;99.90;;;;;;4949042;28;20048;-84
2021/07/09 12:43:52;;;;;;;5.93;4.45;;;20.20;99.90;;;;;;4950007;28;20076;-83
2021/07/09 12:46:21;;;;;;;5.88;3.10;;;20.10;99.90;;;;;;4944659;28;20051;-84
2021/07/09 12:49:03;;;;;;;4.50;3.63;;;20.10;99.90;;;;;;4968163;28;20440;-85
2021/07/09 12:51:32;;;;;;;3.55;3.00;;;20.10;99.90;;;;;;4962308;28;20046;-85
2021/07/09 12:54:04;;;;;;;3.58;3.30;;;20.10;99.90;;;;;;4981204;28;20046;-85
2021/07/09 12:56:39;;;;;;;4.38;3.97;;;20.00;99.90;;;;;;4963729;28;20043;-85